sensor_id;sensor_type;location;lat;lon;timestamp;pressure;altitude;pressure_sealevel;temperature;humidity
12536;BME280;6334;48.696;2.114;2022-11-28T00:01:21;99386.30;;;8.92;100.00
12536;BME280;6334;48.696;2.114;2022-11-28T00:03:50;99381.87;;;9.07;100.00
12536;BME280;6334;48.696;2.114;2022-11-28T00:06:21;99378.92;;;9.26;100.00
12536;BME280;6334;48.696;2.114;2022-11-28T00:08:51;99373.78;;;8.85;100.00
12536;BME280;6334;48.696;2.114;2022-11-28T00:11:22;99371.17;;;9.15;100.00
12536;BME280;6334;48.696;2.114;2022-11-28T00:13:52;99368.41;;;9.10;100.00
12536;BME280;6334;48.696;2.114;2022-11-28T00:16:22;99372.94;;;9.29;100.00
12536;BME280;6334;48.696;2.114;2022-11-28T00:18:53;99371.22;;;9.23;100.00
12536;BME280;6334;48.696;2.114;2022-11-28T00:21:23;99361.75;;;8.95;100.00
12536;BME280;6334;48.696;2.114;2022-11-28T00:23:54;99367.58;;;9.13;100.00
12536;BME280;6334;48.696;2.114;2022-11-28T00:26:31;99370.38;;;9.07;100.00
12536;BME280;6334;48.696;2.114;2022-11-28T00:29:01;99366.06;;;9.00;100.00
12536;BME280;6334;48.696;2.114;2022-11-28T00:31:32;99362.33;;;9.22;100.00
12536;BME280;6334;48.696;2.114;2022-11-28T00:34:01;99358.55;;;9.10;100.00
12536;BME280;6334;48.696;2.114;2022-11-28T00:36:34;99359.20;;;9.38;100.00
12536;BME280;6334;48.696;2.114;2022-11-28T00:39:04;99362.05;;;8.91;100.00
12536;BME280;6334;48.696;2.114;2022-11-28T00:41:34;99359.66;;;9.15;100.00
12536;BME280;6334;48.696;2.114;2022-11-28T00:44:04;99350.31;;;8.99;100.00
12536;BME280;6334;48.696;2.114;2022-11-28T00:46:35;99351.59;;;9.22;100.00
12536;BME280;6334;48.696;2.114;2022-11-28T00:49:05;99351.95;;;9.20;100.00
12536;BME280;6334;48.696;2.114;2022-11-28T00:51:36;99354.91;;;9.36;100.00
12536;BME280;6334;48.696;2.114;2022-11-28T00:54:06;99349.38;;;9.25;100.00
12536;BME280;6334;48.696;2.114;2022-11-28T00:56:37;99347.92;;;9.36;100.00
12536;BME280;6334;48.696;2.114;2022-11-28T00:59:07;99350.98;;;9.18;100.00
12536;BME280;6334;48.696;2.114;2022-11-28T01:01:40;99345.91;;;9.31;100.00
12536;BME280;6334;48.696;2.114;2022-11-28T01:04:10;99346.83;;;9.11;100.00
12536;BME280;6334;48.696;2.114;2022-11-28T01:06:44;99349.61;;;9.24;100.00
12536;BME280;6334;48.696;2.114;2022-11-28T01:09:14;99350.90;;;9.11;100.00
12536;BME280;6334;48.696;2.114;2022-11-28T01:11:43;99351.22;;;9.03;100.00
12536;BME280;6334;48.696;2.114;2022-11-28T01:14:14;99347.57;;;9.07;100.00
12536;BME280;6334;48.696;2.114;2022-11-28T01:16:44;99351.81;;;9.13;100.00
12536;BME280;6334;48.696;2.114;2022-11-28T01:19:14;99350.58;;;9.10;100.00
12536;BME280;6334;48.696;2.114;2022-11-28T01:21:45;99353.39;;;9.04;100.00
12536;BME280;6334;48.696;2.114;2022-11-28T01:24:15;99358.30;;;9.10;100.00
12536;BME280;6334;48.696;2.114;2022-11-28T01:26:45;99356.33;;;9.06;100.00
12536;BME280;6334;48.696;2.114;2022-11-28T01:29:16;99356.95;;;8.97;100.00
12536;BME280;6334;48.696;2.114;2022-11-28T01:31:46;99363.23;;;9.13;100.00
12536;BME280;6334;48.696;2.114;2022-11-28T01:34:17;99361.77;;;9.02;100.00
12536;BME280;6334;48.696;2.114;2022-11-28T01:36:47;99359.33;;;9.14;100.00
12536;BME280;6334;48.696;2.114;2022-11-28T01:39:18;99361.31;;;9.09;100.00
12536;BME280;6334;48.696;2.114;2022-11-28T01:41:48;99362.09;;;9.13;100.00
12536;BME280;6334;48.696;2.114;2022-11-28T01:46:49;99364.31;;;9.26;100.00
12536;BME280;6334;48.696;2.114;2022-11-28T01:49:28;99363.17;;;9.23;100.00
12536;BME280;6334;48.696;2.114;2022-11-28T01:52:05;99369.63;;;9.19;100.00
12536;BME280;6334;48.696;2.114;2022-11-28T01:54:26;99368.87;;;9.28;100.00
12536;BME280;6334;48.696;2.114;2022-11-28T01:56:59;99372.50;;;9.24;100.00
12536;BME280;6334;48.696;2.114;2022-11-28T01:59:27;99371.62;;;9.10;100.00
12536;BME280;6334;48.696;2.114;2022-11-28T02:01:57;99369.94;;;9.22;100.00
12536;BME280;6334;48.696;2.114;2022-11-28T02:04:27;99364.34;;;9.18;100.00
12536;BME280;6334;48.696;2.114;2022-11-28T02:06:59;99364.77;;;9.36;100.00
12536;BME280;6334;48.696;2.114;2022-11-28T02:09:30;99363.05;;;9.54;100.00
12536;BME280;6334;48.696;2.114;2022-11-28T02:33:52;99350.99;;;9.32;100.00
12536;BME280;6334;48.696;2.114;2022-11-28T02:36:31;99353.14;;;9.35;100.00
12536;BME280;6334;48.696;2.114;2022-11-28T02:41:43;99348.30;;;9.38;100.00
12536;BME280;6334;48.696;2.114;2022-11-28T02:44:21;99345.73;;;9.46;100.00
12536;BME280;6334;48.696;2.114;2022-11-28T02:46:58;99346.06;;;9.46;100.00
12536;BME280;6334;48.696;2.114;2022-11-28T02:49:46;99336.88;;;9.37;100.00
12536;BME280;6334;48.696;2.114;2022-11-28T02:52:16;99331.69;;;9.37;100.00
12536;BME280;6334;48.696;2.114;2022-11-28T02:54:45;99320.91;;;9.47;100.00
12536;BME280;6334;48.696;2.114;2022-11-28T02:57:16;99315.50;;;9.44;100.00
12536;BME280;6334;48.696;2.114;2022-11-28T02:59:48;99311.48;;;9.39;100.00
12536;BME280;6334;48.696;2.114;2022-11-28T03:02:26;99316.27;;;9.19;100.00
12536;BME280;6334;48.696;2.114;2022-11-28T03:05:06;99316.25;;;9.38;100.00
12536;BME280;6334;48.696;2.114;2022-11-28T03:13:00;99319.78;;;9.41;100.00
12536;BME280;6334;48.696;2.114;2022-11-28T03:15:30;99322.02;;;9.54;100.00
12536;BME280;6334;48.696;2.114;2022-11-28T03:18:13;99324.01;;;9.49;100.00
12536;BME280;6334;48.696;2.114;2022-11-28T03:20:47;99321.59;;;9.41;100.00
12536;BME280;6334;48.696;2.114;2022-11-28T03:23:18;99317.77;;;9.49;100.00
12536;BME280;6334;48.696;2.114;2022-11-28T03:26:00;99327.28;;;9.52;100.00
12536;BME280;6334;48.696;2.114;2022-11-28T03:28:32;99329.59;;;9.62;100.00
12536;BME280;6334;48.696;2.114;2022-11-28T03:31:09;99325.59;;;9.66;100.00
12536;BME280;6334;48.696;2.114;2022-11-28T03:33:39;99324.73;;;9.55;100.00
12536;BME280;6334;48.696;2.114;2022-11-28T03:36:12;99317.09;;;9.54;100.00
12536;BME280;6334;48.696;2.114;2022-11-28T03:38:40;99318.59;;;9.22;100.00
12536;BME280;6334;48.696;2.114;2022-11-28T03:41:19;99316.74;;;9.51;100.00
12536;BME280;6334;48.696;2.114;2022-11-28T03:43:49;99305.66;;;9.46;100.00
12536;BME280;6334;48.696;2.114;2022-11-28T03:46:19;99309.62;;;9.44;100.00
12536;BME280;6334;48.696;2.114;2022-11-28T03:48:50;99305.47;;;9.47;100.00
12536;BME280;6334;48.696;2.114;2022-11-28T03:51:21;99308.25;;;9.53;100.00
12536;BME280;6334;48.696;2.114;2022-11-28T03:54:00;99318.47;;;9.47;100.00
12536;BME280;6334;48.696;2.114;2022-11-28T03:59:59;99321.92;;;9.53;100.00
12536;BME280;6334;48.696;2.114;2022-11-28T04:01:54;99317.50;;;9.44;100.00
12536;BME280;6334;48.696;2.114;2022-11-28T04:04:34;99315.20;;;9.31;100.00
12536;BME280;6334;48.696;2.114;2022-11-28T04:07:15;99316.31;;;9.62;100.00
12536;BME280;6334;48.696;2.114;2022-11-28T04:09:48;99321.96;;;9.52;100.00
12536;BME280;6334;48.696;2.114;2022-11-28T04:14:54;99325.38;;;9.44;100.00
12536;BME280;6334;48.696;2.114;2022-11-28T04:17:36;99329.17;;;9.35;100.00
12536;BME280;6334;48.696;2.114;2022-11-28T04:20:05;99328.55;;;9.41;100.00
12536;BME280;6334;48.696;2.114;2022-11-28T04:22:35;99330.81;;;9.61;100.00
12536;BME280;6334;48.696;2.114;2022-11-28T04:25:05;99328.06;;;9.77;100.00
12536;BME280;6334;48.696;2.114;2022-11-28T04:27:36;99331.74;;;9.40;100.00
12536;BME280;6334;48.696;2.114;2022-11-28T04:30:05;99338.56;;;9.42;100.00
12536;BME280;6334;48.696;2.114;2022-11-28T04:32:36;99339.86;;;9.39;100.00
12536;BME280;6334;48.696;2.114;2022-11-28T04:35:10;99342.19;;;9.31;100.00
12536;BME280;6334;48.696;2.114;2022-11-28T04:37:41;99341.92;;;9.24;100.00
12536;BME280;6334;48.696;2.114;2022-11-28T04:40:11;99338.08;;;9.41;100.00
12536;BME280;6334;48.696;2.114;2022-11-28T04:42:46;99332.03;;;9.34;100.00
12536;BME280;6334;48.696;2.114;2022-11-28T04:45:16;99323.36;;;9.42;100.00
12536;BME280;6334;48.696;2.114;2022-11-28T04:47:45;99316.71;;;9.62;100.00
12536;BME280;6334;48.696;2.114;2022-11-28T04:50:16;99310.72;;;9.53;100.00
12536;BME280;6334;48.696;2.114;2022-11-28T04:53:14;99314.17;;;9.39;100.00
12536;BME280;6334;48.696;2.114;2022-11-28T04:55:44;99324.05;;;9.60;100.00
12536;BME280;6334;48.696;2.114;2022-11-28T04:58:14;99324.45;;;9.33;100.00
12536;BME280;6334;48.696;2.114;2022-11-28T05:00:44;99327.69;;;9.30;100.00
12536;BME280;6334;48.696;2.114;2022-11-28T05:03:14;99325.26;;;9.36;100.00
12536;BME280;6334;48.696;2.114;2022-11-28T05:05:49;99335.51;;;9.36;100.00
12536;BME280;6334;48.696;2.114;2022-11-28T05:08:16;99339.80;;;9.44;100.00
12536;BME280;6334;48.696;2.114;2022-11-28T05:10:48;99333.69;;;9.45;100.00
12536;BME280;6334;48.696;2.114;2022-11-28T05:13:18;99325.87;;;9.64;100.00
12536;BME280;6334;48.696;2.114;2022-11-28T05:15:49;99322.23;;;9.67;100.00
12536;BME280;6334;48.696;2.114;2022-11-28T05:18:19;99321.13;;;9.41;100.00
12536;BME280;6334;48.696;2.114;2022-11-28T05:20:50;99313.06;;;9.68;100.00
12536;BME280;6334;48.696;2.114;2022-11-28T05:23:20;99314.55;;;9.44;100.00
12536;BME280;6334;48.696;2.114;2022-11-28T05:25:51;99320.70;;;9.48;100.00
12536;BME280;6334;48.696;2.114;2022-11-28T05:28:21;99318.70;;;9.70;100.00
12536;BME280;6334;48.696;2.114;2022-11-28T05:30:57;99327.67;;;9.58;100.00
12536;BME280;6334;48.696;2.114;2022-11-28T05:33:28;99327.56;;;9.34;100.00
12536;BME280;6334;48.696;2.114;2022-11-28T05:36:04;99323.02;;;9.51;100.00
12536;BME280;6334;48.696;2.114;2022-11-28T05:38:35;99317.92;;;9.63;100.00
12536;BME280;6334;48.696;2.114;2022-11-28T05:41:05;99314.13;;;9.65;100.00
12536;BME280;6334;48.696;2.114;2022-11-28T05:43:37;99315.92;;;9.56;100.00
12536;BME280;6334;48.696;2.114;2022-11-28T05:46:07;99323.05;;;9.37;100.00
12536;BME280;6334;48.696;2.114;2022-11-28T05:48:37;99320.94;;;9.47;100.00
12536;BME280;6334;48.696;2.114;2022-11-28T05:51:08;99315.39;;;9.59;100.00
12536;BME280;6334;48.696;2.114;2022-11-28T05:53:38;99318.59;;;9.55;100.00
12536;BME280;6334;48.696;2.114;2022-11-28T05:56:10;99322.36;;;9.73;100.00
12536;BME280;6334;48.696;2.114;2022-11-28T05:58:39;99329.69;;;9.62;100.00
12536;BME280;6334;48.696;2.114;2022-11-28T06:01:15;99333.72;;;9.59;100.00
12536;BME280;6334;48.696;2.114;2022-11-28T06:03:45;99342.02;;;9.42;100.00
12536;BME280;6334;48.696;2.114;2022-11-28T06:06:17;99346.96;;;9.70;100.00
12536;BME280;6334;48.696;2.114;2022-11-28T06:08:47;99347.48;;;9.64;100.00
12536;BME280;6334;48.696;2.114;2022-11-28T06:11:21;99351.27;;;9.81;100.00
12536;BME280;6334;48.696;2.114;2022-11-28T06:13:48;99356.59;;;9.51;100.00
12536;BME280;6334;48.696;2.114;2022-11-28T06:16:22;99356.56;;;9.80;100.00
12536;BME280;6334;48.696;2.114;2022-11-28T06:18:56;99355.50;;;9.31;100.00
12536;BME280;6334;48.696;2.114;2022-11-28T06:21:26;99353.89;;;9.76;100.00
12536;BME280;6334;48.696;2.114;2022-11-28T06:23:59;99352.03;;;9.49;100.00
12536;BME280;6334;48.696;2.114;2022-11-28T06:26:31;99358.84;;;9.73;100.00
12536;BME280;6334;48.696;2.114;2022-11-28T06:29:02;99353.40;;;9.45;100.00
12536;BME280;6334;48.696;2.114;2022-11-28T06:31:32;99359.64;;;9.58;100.00
12536;BME280;6334;48.696;2.114;2022-11-28T06:34:03;99360.42;;;9.37;100.00
12536;BME280;6334;48.696;2.114;2022-11-28T06:36:33;99364.58;;;9.49;100.00
12536;BME280;6334;48.696;2.114;2022-11-28T06:39:04;99364.61;;;9.41;100.00
12536;BME280;6334;48.696;2.114;2022-11-28T06:41:34;99361.59;;;9.63;100.00
12536;BME280;6334;48.696;2.114;2022-11-28T06:44:04;99360.56;;;9.81;100.00
12536;BME280;6334;48.696;2.114;2022-11-28T06:46:34;99362.84;;;9.55;100.00
12536;BME280;6334;48.696;2.114;2022-11-28T06:49:04;99368.77;;;9.45;100.00
12536;BME280;6334;48.696;2.114;2022-11-28T06:51:34;99367.02;;;9.67;100.00
12536;BME280;6334;48.696;2.114;2022-11-28T06:54:04;99375.35;;;9.34;100.00
12536;BME280;6334;48.696;2.114;2022-11-28T06:56:33;99372.45;;;9.51;100.00
12536;BME280;6334;48.696;2.114;2022-11-28T06:59:04;99376.63;;;9.42;100.00
12536;BME280;6334;48.696;2.114;2022-11-28T07:01:34;99375.07;;;9.60;100.00
12536;BME280;6334;48.696;2.114;2022-11-28T07:04:05;99377.44;;;9.59;100.00
12536;BME280;6334;48.696;2.114;2022-11-28T07:06:35;99380.25;;;9.23;100.00
12536;BME280;6334;48.696;2.114;2022-11-28T07:09:05;99380.16;;;9.38;100.00
12536;BME280;6334;48.696;2.114;2022-11-28T07:11:39;99371.12;;;9.56;100.00
12536;BME280;6334;48.696;2.114;2022-11-28T07:14:08;99370.13;;;9.57;100.00
12536;BME280;6334;48.696;2.114;2022-11-28T07:16:39;99373.55;;;9.41;100.00
12536;BME280;6334;48.696;2.114;2022-11-28T07:19:09;99370.14;;;9.54;100.00
12536;BME280;6334;48.696;2.114;2022-11-28T07:21:40;99376.70;;;9.50;100.00
12536;BME280;6334;48.696;2.114;2022-11-28T07:24:10;99381.39;;;9.59;100.00
12536;BME280;6334;48.696;2.114;2022-11-28T07:26:41;99377.94;;;9.50;100.00
12536;BME280;6334;48.696;2.114;2022-11-28T07:29:15;99375.86;;;9.68;100.00
12536;BME280;6334;48.696;2.114;2022-11-28T07:31:44;99378.89;;;9.72;100.00
12536;BME280;6334;48.696;2.114;2022-11-28T07:34:15;99378.25;;;9.40;100.00
12536;BME280;6334;48.696;2.114;2022-11-28T07:36:45;99382.91;;;9.43;100.00
12536;BME280;6334;48.696;2.114;2022-11-28T07:39:16;99389.30;;;9.46;100.00
12536;BME280;6334;48.696;2.114;2022-11-28T07:41:46;99394.33;;;9.59;100.00
12536;BME280;6334;48.696;2.114;2022-11-28T07:44:16;99388.68;;;9.60;100.00
12536;BME280;6334;48.696;2.114;2022-11-28T07:46:46;99389.69;;;9.48;100.00
12536;BME280;6334;48.696;2.114;2022-11-28T07:49:18;99392.84;;;9.36;100.00
12536;BME280;6334;48.696;2.114;2022-11-28T07:51:47;99396.42;;;9.27;100.00
12536;BME280;6334;48.696;2.114;2022-11-28T07:54:17;99395.91;;;9.51;100.00
12536;BME280;6334;48.696;2.114;2022-11-28T07:56:47;99395.77;;;9.67;100.00
12536;BME280;6334;48.696;2.114;2022-11-28T07:59:18;99395.84;;;9.91;100.00
12536;BME280;6334;48.696;2.114;2022-11-28T08:01:48;99397.94;;;9.82;100.00
12536;BME280;6334;48.696;2.114;2022-11-28T08:04:19;99398.50;;;9.74;100.00
12536;BME280;6334;48.696;2.114;2022-11-28T08:06:49;99395.38;;;9.87;100.00
12536;BME280;6334;48.696;2.114;2022-11-28T08:09:20;99393.89;;;9.87;100.00
12536;BME280;6334;48.696;2.114;2022-11-28T08:11:50;99405.08;;;9.52;100.00
12536;BME280;6334;48.696;2.114;2022-11-28T08:14:21;99406.17;;;9.56;100.00
12536;BME280;6334;48.696;2.114;2022-11-28T08:16:51;99412.40;;;9.52;100.00
12536;BME280;6334;48.696;2.114;2022-11-28T08:19:22;99418.92;;;9.56;100.00
12536;BME280;6334;48.696;2.114;2022-11-28T08:21:52;99416.09;;;9.13;100.00
12536;BME280;6334;48.696;2.114;2022-11-28T08:24:22;99410.16;;;9.52;100.00
12536;BME280;6334;48.696;2.114;2022-11-28T08:26:53;99410.88;;;9.54;100.00
12536;BME280;6334;48.696;2.114;2022-11-28T08:29:23;99410.89;;;9.33;100.00
12536;BME280;6334;48.696;2.114;2022-11-28T08:31:54;99415.03;;;9.30;100.00
12536;BME280;6334;48.696;2.114;2022-11-28T08:34:24;99416.20;;;9.23;100.00
12536;BME280;6334;48.696;2.114;2022-11-28T08:36:55;99416.13;;;9.56;100.00
12536;BME280;6334;48.696;2.114;2022-11-28T08:39:25;99414.45;;;9.46;100.00
12536;BME280;6334;48.696;2.114;2022-11-28T08:41:56;99420.11;;;9.25;100.00
12536;BME280;6334;48.696;2.114;2022-11-28T08:44:26;99419.94;;;9.37;100.00
12536;BME280;6334;48.696;2.114;2022-11-28T08:46:56;99424.58;;;9.61;100.00
12536;BME280;6334;48.696;2.114;2022-11-28T08:49:26;99419.14;;;9.41;100.00
12536;BME280;6334;48.696;2.114;2022-11-28T08:51:57;99417.25;;;9.78;100.00
12536;BME280;6334;48.696;2.114;2022-11-28T08:54:27;99424.92;;;9.51;100.00
12536;BME280;6334;48.696;2.114;2022-11-28T08:56:58;99421.84;;;9.66;100.00
12536;BME280;6334;48.696;2.114;2022-11-28T08:59:28;99424.81;;;9.54;100.00
12536;BME280;6334;48.696;2.114;2022-11-28T09:01:58;99419.86;;;9.82;100.00
12536;BME280;6334;48.696;2.114;2022-11-28T09:04:27;99420.86;;;9.63;100.00
12536;BME280;6334;48.696;2.114;2022-11-28T09:06:58;99426.62;;;9.67;100.00
12536;BME280;6334;48.696;2.114;2022-11-28T09:09:28;99424.77;;;9.86;100.00
12536;BME280;6334;48.696;2.114;2022-11-28T09:11:58;99422.97;;;9.46;100.00
12536;BME280;6334;48.696;2.114;2022-11-28T09:14:28;99420.88;;;9.40;100.00
12536;BME280;6334;48.696;2.114;2022-11-28T09:16:59;99425.04;;;9.63;100.00
12536;BME280;6334;48.696;2.114;2022-11-28T09:19:29;99426.23;;;9.60;100.00
12536;BME280;6334;48.696;2.114;2022-11-28T09:22:01;99425.70;;;9.31;100.00
12536;BME280;6334;48.696;2.114;2022-11-28T09:24:31;99429.34;;;9.32;100.00
12536;BME280;6334;48.696;2.114;2022-11-28T09:27:02;99435.28;;;9.46;100.00
12536;BME280;6334;48.696;2.114;2022-11-28T09:29:32;99435.11;;;9.73;100.00
12536;BME280;6334;48.696;2.114;2022-11-28T09:32:03;99439.03;;;9.63;100.00
12536;BME280;6334;48.696;2.114;2022-11-28T09:34:33;99434.97;;;9.68;100.00
12536;BME280;6334;48.696;2.114;2022-11-28T09:37:03;99430.37;;;9.75;100.00
12536;BME280;6334;48.696;2.114;2022-11-28T09:39:33;99427.21;;;9.96;100.00
12536;BME280;6334;48.696;2.114;2022-11-28T09:45:37;99427.67;;;9.76;100.00
12536;BME280;6334;48.696;2.114;2022-11-28T09:47:24;99429.52;;;9.67;100.00
12536;BME280;6334;48.696;2.114;2022-11-28T09:49:57;99425.43;;;9.55;100.00
12536;BME280;6334;48.696;2.114;2022-11-28T09:57:52;99430.52;;;9.77;100.00
12536;BME280;6334;48.696;2.114;2022-11-28T10:00:23;99429.20;;;9.64;100.00
12536;BME280;6334;48.696;2.114;2022-11-28T10:05:59;99432.89;;;9.54;100.00
12536;BME280;6334;48.696;2.114;2022-11-28T10:11:08;99431.03;;;9.81;100.00
12536;BME280;6334;48.696;2.114;2022-11-28T10:16:42;99448.74;;;9.82;100.00
12536;BME280;6334;48.696;2.114;2022-11-28T10:19:08;99445.67;;;9.85;100.00
12536;BME280;6334;48.696;2.114;2022-11-28T10:21:37;99447.63;;;9.84;100.00
12536;BME280;6334;48.696;2.114;2022-11-28T10:24:10;99443.43;;;9.94;100.00
12536;BME280;6334;48.696;2.114;2022-11-28T10:26:36;99445.34;;;10.00;100.00
12536;BME280;6334;48.696;2.114;2022-11-28T10:29:23;99447.66;;;10.04;100.00
12536;BME280;6334;48.696;2.114;2022-11-28T10:31:54;99451.67;;;9.75;100.00
12536;BME280;6334;48.696;2.114;2022-11-28T10:34:35;99453.53;;;9.77;100.00
12536;BME280;6334;48.696;2.114;2022-11-28T10:37:28;99446.84;;;9.83;100.00
12536;BME280;6334;48.696;2.114;2022-11-28T10:39:38;99443.47;;;9.86;100.00
12536;BME280;6334;48.696;2.114;2022-11-28T10:42:08;99447.65;;;9.78;100.00
12536;BME280;6334;48.696;2.114;2022-11-28T10:53:45;99443.65;;;10.09;100.00
12536;BME280;6334;48.696;2.114;2022-11-28T10:59:12;99444.77;;;9.91;100.00
12536;BME280;6334;48.696;2.114;2022-11-28T11:01:33;99450.53;;;10.18;100.00
12536;BME280;6334;48.696;2.114;2022-11-28T11:04:01;99449.84;;;10.23;100.00
12536;BME280;6334;48.696;2.114;2022-11-28T11:06:30;99448.09;;;10.14;100.00
12536;BME280;6334;48.696;2.114;2022-11-28T11:09:01;99453.97;;;9.97;100.00
12536;BME280;6334;48.696;2.114;2022-11-28T11:11:34;99458.66;;;10.12;100.00
12536;BME280;6334;48.696;2.114;2022-11-28T11:14:07;99460.00;;;9.99;100.00
12536;BME280;6334;48.696;2.114;2022-11-28T11:16:53;99461.13;;;9.83;100.00
12536;BME280;6334;48.696;2.114;2022-11-28T11:19:37;99454.48;;;9.91;100.00
12536;BME280;6334;48.696;2.114;2022-11-28T11:24:41;99451.69;;;10.05;100.00
12536;BME280;6334;48.696;2.114;2022-11-28T11:27:19;99447.00;;;10.08;100.00
12536;BME280;6334;48.696;2.114;2022-11-28T11:29:48;99445.97;;;10.04;100.00
12536;BME280;6334;48.696;2.114;2022-11-28T11:32:28;99448.36;;;10.07;100.00
12536;BME280;6334;48.696;2.114;2022-11-28T11:34:58;99446.61;;;10.14;100.00
12536;BME280;6334;48.696;2.114;2022-11-28T11:37:32;99440.28;;;10.17;100.00
12536;BME280;6334;48.696;2.114;2022-11-28T11:40:03;99433.22;;;10.36;100.00
12536;BME280;6334;48.696;2.114;2022-11-28T11:42:32;99430.65;;;10.36;100.00
12536;BME280;6334;48.696;2.114;2022-11-28T11:47:42;99416.15;;;10.48;100.00
12536;BME280;6334;48.696;2.114;2022-11-28T11:50:21;99412.53;;;10.29;100.00
12536;BME280;6334;48.696;2.114;2022-11-28T11:53:04;99408.64;;;10.27;100.00
12536;BME280;6334;48.696;2.114;2022-11-28T11:55:36;99404.55;;;10.38;100.00
12536;BME280;6334;48.696;2.114;2022-11-28T11:58:02;99402.04;;;10.47;100.00
12536;BME280;6334;48.696;2.114;2022-11-28T12:00:37;99398.15;;;10.35;100.00
12536;BME280;6334;48.696;2.114;2022-11-28T12:03:24;99404.73;;;10.48;100.00
12536;BME280;6334;48.696;2.114;2022-11-28T12:05:53;99399.48;;;10.65;100.00
12536;BME280;6334;48.696;2.114;2022-11-28T12:08:35;99396.02;;;10.43;100.00
12536;BME280;6334;48.696;2.114;2022-11-28T12:13:45;99393.77;;;10.32;100.00
12536;BME280;6334;48.696;2.114;2022-11-28T12:19:18;99390.69;;;10.35;100.00
12536;BME280;6334;48.696;2.114;2022-11-28T12:21:58;99388.42;;;10.63;100.00
12536;BME280;6334;48.696;2.114;2022-11-28T12:24:27;99379.36;;;10.68;100.00
12536;BME280;6334;48.696;2.114;2022-11-28T12:27:05;99374.52;;;10.79;100.00
12536;BME280;6334;48.696;2.114;2022-11-28T12:32:23;99371.34;;;10.54;100.00
12536;BME280;6334;48.696;2.114;2022-11-28T12:43:16;99376.22;;;10.46;100.00
12536;BME280;6334;48.696;2.114;2022-11-28T12:48:46;99375.89;;;10.58;100.00
12536;BME280;6334;48.696;2.114;2022-11-28T12:51:29;99375.91;;;10.44;100.00
12536;BME280;6334;48.696;2.114;2022-11-28T12:57:27;99376.13;;;11.03;100.00
12536;BME280;6334;48.696;2.114;2022-11-28T12:59:49;99373.73;;;10.89;100.00
12536;BME280;6334;48.696;2.114;2022-11-28T13:02:37;99376.55;;;10.83;100.00
12536;BME280;6334;48.696;2.114;2022-11-28T13:06:06;99372.58;;;10.82;100.00
12536;BME280;6334;48.696;2.114;2022-11-28T13:10:41;99371.75;;;10.65;100.00
12536;BME280;6334;48.696;2.114;2022-11-28T13:13:21;99371.66;;;10.71;100.00
12536;BME280;6334;48.696;2.114;2022-11-28T13:18:34;99371.66;;;10.71;100.00
12536;BME280;6334;48.696;2.114;2022-11-28T13:26:41;99364.88;;;10.71;100.00
12536;BME280;6334;48.696;2.114;2022-11-28T13:34:43;99372.47;;;10.72;100.00
12536;BME280;6334;48.696;2.114;2022-11-28T13:37:30;99375.98;;;10.74;100.00
12536;BME280;6334;48.696;2.114;2022-11-28T13:40:01;99381.38;;;10.73;100.00
12536;BME280;6334;48.696;2.114;2022-11-28T13:42:31;99382.94;;;10.68;100.00
12536;BME280;6334;48.696;2.114;2022-11-28T13:44:59;99380.34;;;10.83;100.00
12536;BME280;6334;48.696;2.114;2022-11-28T13:47:34;99384.38;;;10.76;100.00
12536;BME280;6334;48.696;2.114;2022-11-28T13:53:18;99384.06;;;10.83;100.00
12536;BME280;6334;48.696;2.114;2022-11-28T13:55:44;99381.36;;;10.68;100.00
12536;BME280;6334;48.696;2.114;2022-11-28T13:58:25;99385.47;;;10.76;100.00
12536;BME280;6334;48.696;2.114;2022-11-28T14:01:09;99387.61;;;10.79;100.00
12536;BME280;6334;48.696;2.114;2022-11-28T14:06:29;99387.95;;;10.92;100.00
12536;BME280;6334;48.696;2.114;2022-11-28T14:09:05;99387.48;;;10.69;100.00
12536;BME280;6334;48.696;2.114;2022-11-28T14:25:27;99387.05;;;10.72;100.00
12536;BME280;6334;48.696;2.114;2022-11-28T14:27:58;99391.53;;;10.56;100.00
12536;BME280;6334;48.696;2.114;2022-11-28T14:30:40;99393.02;;;10.59;100.00
12536;BME280;6334;48.696;2.114;2022-11-28T14:33:25;99396.47;;;10.61;100.00
12536;BME280;6334;48.696;2.114;2022-11-28T14:36:20;99394.08;;;10.52;100.00
12536;BME280;6334;48.696;2.114;2022-11-28T14:41:04;99394.81;;;10.66;100.00
12536;BME280;6334;48.696;2.114;2022-11-28T14:43:44;99402.54;;;10.51;100.00
12536;BME280;6334;48.696;2.114;2022-11-28T14:46:23;99407.36;;;10.48;100.00
12536;BME280;6334;48.696;2.114;2022-11-28T14:54:35;99406.40;;;10.54;100.00
12536;BME280;6334;48.696;2.114;2022-11-28T14:57:12;99411.56;;;10.58;100.00
12536;BME280;6334;48.696;2.114;2022-11-28T14:59:40;99419.63;;;10.69;100.00
12536;BME280;6334;48.696;2.114;2022-11-28T15:10:08;99420.23;;;10.69;100.00
12536;BME280;6334;48.696;2.114;2022-11-28T15:15:34;99419.20;;;10.57;100.00
12536;BME280;6334;48.696;2.114;2022-11-28T15:18:04;99422.80;;;10.60;100.00
12536;BME280;6334;48.696;2.114;2022-11-28T15:20:39;99422.08;;;10.67;100.00
12536;BME280;6334;48.696;2.114;2022-11-28T15:23:30;99413.39;;;10.43;100.00
12536;BME280;6334;48.696;2.114;2022-11-28T15:25:59;99410.12;;;10.49;100.00
12536;BME280;6334;48.696;2.114;2022-11-28T15:28:29;99408.95;;;10.55;100.00
12536;BME280;6334;48.696;2.114;2022-11-28T15:31:00;99411.00;;;10.69;100.00
12536;BME280;6334;48.696;2.114;2022-11-28T15:33:29;99411.14;;;10.69;100.00
12536;BME280;6334;48.696;2.114;2022-11-28T15:36:06;99408.45;;;10.65;100.00
12536;BME280;6334;48.696;2.114;2022-11-28T15:38:40;99413.96;;;10.54;100.00
12536;BME280;6334;48.696;2.114;2022-11-28T15:41:09;99415.73;;;10.59;100.00
12536;BME280;6334;48.696;2.114;2022-11-28T15:43:41;99414.22;;;10.63;100.00
12536;BME280;6334;48.696;2.114;2022-11-28T15:46:13;99412.83;;;10.35;100.00
12536;BME280;6334;48.696;2.114;2022-11-28T15:48:50;99413.19;;;10.25;100.00
12536;BME280;6334;48.696;2.114;2022-11-28T15:51:29;99416.11;;;10.31;100.00
12536;BME280;6334;48.696;2.114;2022-11-28T15:53:58;99416.75;;;10.29;100.00
12536;BME280;6334;48.696;2.114;2022-11-28T15:56:29;99418.72;;;10.30;100.00
12536;BME280;6334;48.696;2.114;2022-11-28T15:58:59;99414.03;;;10.36;100.00
12536;BME280;6334;48.696;2.114;2022-11-28T16:01:30;99418.62;;;10.10;100.00
12536;BME280;6334;48.696;2.114;2022-11-28T16:04:06;99415.28;;;10.22;100.00